createdAt,value
2019-06-27T00:03:21.742Z,66.6
2019-06-27T00:08:18.871Z,66.7
2019-06-27T00:13:16.077Z,66.9
2019-06-27T00:18:13.432Z,66.9
2019-06-27T00:23:10.257Z,67
2019-06-27T00:28:07.435Z,67.1
2019-06-27T00:33:04.926Z,67.1
2019-06-27T00:38:01.949Z,67.3
2019-06-27T00:42:58.911Z,67.4
2019-06-27T00:47:55.501Z,67.4
2019-06-27T00:52:52.414Z,67.6
2019-06-27T00:57:49.507Z,67.8
2019-06-27T01:02:47.129Z,68
2019-06-27T01:07:44.342Z,68.1
2019-06-27T01:12:41.501Z,68.4
2019-06-27T01:17:38.642Z,68.5
2019-06-27T01:22:35.968Z,69
2019-06-27T01:27:32.992Z,69
2019-06-27T01:32:29.973Z,69
2019-06-27T01:37:27.002Z,69.1
2019-06-27T01:42:24.089Z,69.2
2019-06-27T01:47:21.343Z,69.1
2019-06-27T01:52:19.031Z,69.2
2019-06-27T01:57:16.016Z,69.2
2019-06-27T02:02:13.714Z,69.1
2019-06-27T02:07:10.291Z,69.3
2019-06-27T02:12:07.570Z,69.3
2019-06-27T02:17:04.443Z,69.4
2019-06-27T02:22:01.763Z,69.5
2019-06-27T02:26:59.168Z,69.7
2019-06-27T02:31:56.376Z,69.8
2019-06-27T02:36:53.460Z,70.1
2019-06-27T02:41:50.387Z,70.2
2019-06-27T02:46:47.467Z,70.3
2019-06-27T02:51:44.940Z,70.2
2019-06-27T02:56:42.412Z,70.2
2019-06-27T03:01:39.612Z,70.5
2019-06-27T03:06:36.655Z,70.7
2019-06-27T03:11:33.718Z,70.7
2019-06-27T03:16:30.852Z,70.8
2019-06-27T03:21:27.817Z,70.8
2019-06-27T03:26:24.686Z,70.9
2019-06-27T03:31:22.295Z,70.9
2019-06-27T03:36:19.687Z,71.1
2019-06-27T03:41:16.655Z,71.3
2019-06-27T03:46:13.716Z,71.3
2019-06-27T03:51:10.897Z,71.4
2019-06-27T03:56:08.492Z,71.3
2019-06-27T04:01:05.515Z,71.4
2019-06-27T04:06:03.009Z,71.4
2019-06-27T04:11:00.626Z,71.2
2019-06-27T04:15:57.629Z,71.2
2019-06-27T04:20:55.185Z,71.2
2019-06-27T04:25:51.981Z,71.3
2019-06-27T04:30:49.713Z,71.4
2019-06-27T04:35:46.943Z,71.5
2019-06-27T04:40:44.646Z,71.5
2019-06-27T04:45:41.827Z,71.5
2019-06-27T04:50:39.396Z,71
2019-06-27T04:55:36.737Z,71
2019-06-27T05:00:34.100Z,70.8
2019-06-27T05:05:30.953Z,70.7
2019-06-27T05:10:28.723Z,70.9
2019-06-27T05:15:26.461Z,70.6
2019-06-27T05:20:24.170Z,70.5
2019-06-27T05:25:21.166Z,70.6
2019-06-27T05:30:18.630Z,71.1
2019-06-27T05:35:16.084Z,71.1
2019-06-27T05:40:12.990Z,70.9
2019-06-27T05:45:10.371Z,70.7
2019-06-27T05:50:06.992Z,71
2019-06-27T05:55:04.669Z,70.9
2019-06-27T06:00:01.909Z,70.8
2019-06-27T06:04:58.834Z,70.8
2019-06-27T06:09:56.090Z,70.8
2019-06-27T06:14:53.630Z,70.7
2019-06-27T06:19:51.227Z,70.4
2019-06-27T06:24:48.413Z,70.3
2019-06-27T06:29:45.705Z,70.3
2019-06-27T06:34:42.595Z,70.3
2019-06-27T06:39:40.231Z,70
2019-06-27T06:44:37.376Z,69.7
2019-06-27T06:49:35.057Z,69.5
2019-06-27T06:54:32.764Z,69.5
2019-06-27T06:59:29.828Z,68.6
2019-06-27T07:04:27.282Z,69.1
2019-06-27T07:09:24.899Z,68.9
2019-06-27T07:14:22.044Z,68.3
2019-06-27T07:19:19.787Z,66.7
2019-06-27T07:24:17.363Z,66.5
2019-06-27T07:29:15.065Z,66
2019-06-27T07:34:12.520Z,65.2
2019-06-27T07:39:09.962Z,64.8
2019-06-27T07:44:06.958Z,64.2
2019-06-27T07:49:04.203Z,62.9
2019-06-27T07:54:01.633Z,60.1
2019-06-27T07:58:58.894Z,59.6
2019-06-27T08:03:56.174Z,58.9
2019-06-27T08:08:53.910Z,58.8
2019-06-27T08:13:51.460Z,59
2019-06-27T08:18:49.089Z,58.4
2019-06-27T08:23:46.411Z,57.4
2019-06-27T08:28:43.604Z,57.5
2019-06-27T08:33:41.219Z,55.4
2019-06-27T08:38:38.310Z,53.8
2019-06-27T08:43:35.484Z,54.1
2019-06-27T08:48:33.196Z,53
2019-06-27T08:53:29.937Z,51.7
2019-06-27T08:58:27.845Z,51.5
2019-06-27T09:03:25.312Z,50.7
2019-06-27T09:08:22.435Z,50.8
2019-06-27T09:13:20.132Z,50.2
2019-06-27T09:18:17.841Z,50.2
2019-06-27T09:23:15.032Z,48.8
2019-06-27T09:28:12.116Z,47.7
2019-06-27T09:33:09.405Z,46.7
2019-06-27T09:38:06.673Z,44.8
2019-06-27T09:43:03.985Z,44.4
2019-06-27T09:48:01.532Z,43.1
2019-06-27T09:52:58.752Z,42.8
2019-06-27T09:57:56.582Z,42.2
2019-06-27T10:02:53.137Z,41.9
2019-06-27T10:07:50.881Z,39.7
2019-06-27T10:12:48.175Z,40.1
2019-06-27T10:17:45.829Z,38.3
2019-06-27T10:22:42.926Z,39.6
2019-06-27T10:27:40.442Z,40.5
2019-06-27T10:32:37.633Z,40
2019-06-27T10:37:34.905Z,40.5
2019-06-27T10:42:32.389Z,40.1
2019-06-27T10:47:29.574Z,40
2019-06-27T10:52:27.148Z,39.8
2019-06-27T10:57:24.463Z,38
2019-06-27T11:02:21.603Z,37.8
2019-06-27T11:07:19.051Z,38.4
2019-06-27T11:12:16.122Z,37.8
2019-06-27T11:17:13.425Z,38.4
2019-06-27T11:22:11.811Z,38.6
2019-06-27T11:27:09.275Z,39.4
2019-06-27T11:32:06.691Z,38.8
2019-06-27T11:37:03.980Z,38.8
2019-06-27T11:42:01.733Z,38.6
2019-06-27T11:46:59.074Z,39.2
2019-06-27T11:51:56.582Z,37.9
2019-06-27T11:56:51.836Z,37.8
2019-06-27T12:01:48.992Z,37.4
2019-06-27T12:06:46.685Z,38.4
2019-06-27T12:11:44.237Z,38
2019-06-27T12:16:41.898Z,37.8
2019-06-27T12:21:39.030Z,37.2
2019-06-27T12:26:36.808Z,37.2
2019-06-27T12:31:33.890Z,38
2019-06-27T12:36:31.550Z,38
2019-06-27T12:41:28.998Z,38.4
2019-06-27T12:46:26.655Z,37.8
2019-06-27T12:51:24.384Z,38
2019-06-27T12:56:21.587Z,36.7
2019-06-27T13:01:18.814Z,36.3
2019-06-27T13:06:16.567Z,36.9
2019-06-27T13:11:14.337Z,35.3
2019-06-27T13:16:11.914Z,33.9
2019-06-27T13:21:10.351Z,32.4
2019-06-27T13:26:07.778Z,32.8
2019-06-27T13:31:05.045Z,32.4
2019-06-27T13:36:02.146Z,31.7
2019-06-27T13:41:02.117Z,32.8
2019-06-27T13:45:56.843Z,32.1
2019-06-27T13:50:57.441Z,33.5
2019-06-27T13:55:51.732Z,33.2
2019-06-27T14:00:48.858Z,32
2019-06-27T14:05:45.929Z,33.4
2019-06-27T14:10:43.430Z,32.6
2019-06-27T14:15:40.392Z,33.9
2019-06-27T14:20:37.256Z,33.6
2019-06-27T14:25:34.376Z,33.2
2019-06-27T14:30:31.761Z,33.3
2019-06-27T14:35:29.603Z,34
2019-06-27T14:40:26.972Z,34.3
2019-06-27T14:45:23.982Z,34.6
2019-06-27T14:50:21.281Z,35.2
2019-06-27T14:55:18.535Z,35.5
2019-06-27T15:00:15.827Z,35.9
2019-06-27T15:05:12.799Z,36.5
2019-06-27T15:10:09.953Z,36.5
2019-06-27T15:15:07.097Z,36.9
2019-06-27T15:20:04.727Z,37.5
2019-06-27T15:25:02.274Z,37.1
2019-06-27T15:29:59.892Z,36.8
2019-06-27T15:34:56.975Z,36.6
2019-06-27T15:39:53.949Z,36.7
2019-06-27T15:44:51.188Z,37
2019-06-27T15:49:48.379Z,36.8
2019-06-27T15:54:45.806Z,36.6
2019-06-27T15:59:43.397Z,36.6
2019-06-27T16:04:40.441Z,37.5
2019-06-27T16:09:37.088Z,37.8
2019-06-27T16:14:34.222Z,39.1
2019-06-27T16:19:31.492Z,39.7
2019-06-27T16:24:29.203Z,39.7
2019-06-27T16:29:26.188Z,39.6
2019-06-27T16:34:23.206Z,39.7
2019-06-27T16:39:20.823Z,39.9
2019-06-27T16:44:17.970Z,40.3
2019-06-27T16:49:15.001Z,40.3
2019-06-27T16:54:12.129Z,40.6
2019-06-27T16:59:09.372Z,41
2019-06-27T17:04:07.074Z,41.1
2019-06-27T17:09:04.583Z,41.3
2019-06-27T17:14:02.245Z,41.7
2019-06-27T17:18:59.853Z,41.8
2019-06-27T17:23:56.830Z,41.5
2019-06-27T17:28:54.082Z,41.5
2019-06-27T17:33:51.326Z,41.6
2019-06-27T17:38:48.978Z,41.9
2019-06-27T17:43:46.054Z,41.4
2019-06-27T17:48:43.775Z,41.2
2019-06-27T17:53:41.362Z,41.6
2019-06-27T17:58:38.815Z,41.8
2019-06-27T18:03:35.740Z,42.2
2019-06-27T18:08:33.292Z,42.5
2019-06-27T18:13:30.416Z,42.9
2019-06-27T18:18:27.850Z,43.3
2019-06-27T18:23:25.467Z,43.6
2019-06-27T18:28:24.615Z,44
2019-06-27T18:33:21.716Z,44.2
2019-06-27T18:38:19.351Z,44.5
2019-06-27T18:43:16.326Z,45
2019-06-27T18:48:14.010Z,45.1
2019-06-27T18:53:11.124Z,45.1
2019-06-27T18:58:08.475Z,45.6
2019-06-27T19:03:05.613Z,45.7
2019-06-27T19:08:02.894Z,46.1
2019-06-27T19:13:00.127Z,46.4
2019-06-27T19:17:57.955Z,46.7
2019-06-27T19:22:55.130Z,47.2
2019-06-27T19:27:52.202Z,47.3
2019-06-27T19:32:49.099Z,47.9
2019-06-27T19:38:00.717Z,48.3
2019-06-27T19:42:43.330Z,48.9
2019-06-27T19:47:41.128Z,49.1
2019-06-27T19:52:38.661Z,49.3
2019-06-27T19:57:35.975Z,50.1
2019-06-27T20:02:33.295Z,50.2
2019-06-27T20:07:30.450Z,50.6
2019-06-27T20:12:27.526Z,51
2019-06-27T20:17:24.810Z,51.7
2019-06-27T20:22:21.882Z,51.8
2019-06-27T20:27:19.121Z,52.4
2019-06-27T20:32:16.399Z,52.5
2019-06-27T20:37:14.023Z,52.6
2019-06-27T20:42:11.795Z,53.3
2019-06-27T20:47:09.090Z,53.6
2019-06-27T20:52:06.620Z,54.5
2019-06-27T20:57:03.714Z,55
2019-06-27T21:02:01.200Z,55.1
2019-06-27T21:06:58.403Z,55.9
2019-06-27T21:11:55.693Z,55.8
2019-06-27T21:16:52.920Z,56.5
2019-06-27T21:21:50.054Z,56.9
2019-06-27T21:26:47.438Z,57.6
2019-06-27T21:31:44.783Z,57.8
2019-06-27T21:36:41.809Z,58.1
2019-06-27T21:41:39.111Z,58.7
2019-06-27T21:46:36.226Z,59.2
2019-06-27T21:51:33.571Z,59.4
2019-06-27T21:56:31.211Z,59.6
2019-06-27T22:01:28.399Z,60
2019-06-27T22:06:26.051Z,60.1
2019-06-27T22:11:23.032Z,60.4
2019-06-27T22:16:20.261Z,60.2
2019-06-27T22:21:17.461Z,60.8
2019-06-27T22:26:14.497Z,60.8
2019-06-27T22:31:11.732Z,60.5
2019-06-27T22:36:09.019Z,60.5
2019-06-27T22:41:06.332Z,60.3
2019-06-27T22:46:03.880Z,60.4
2019-06-27T22:51:01.477Z,60.2
2019-06-27T22:55:58.407Z,60.2
2019-06-27T23:00:56.148Z,60
2019-06-27T23:05:52.692Z,60
2019-06-27T23:10:50.106Z,60
2019-06-27T23:15:47.655Z,60
2019-06-27T23:20:44.911Z,59.9
2019-06-27T23:25:42.090Z,60.2
2019-06-27T23:30:39.757Z,60.2
2019-06-27T23:35:37.198Z,60.4
2019-06-27T23:40:34.259Z,60.5
2019-06-27T23:45:31.079Z,60.5
2019-06-27T23:50:28.487Z,60.4
2019-06-27T23:55:25.773Z,60.4
